createdAt,value
2023-03-04T00:00:32.216Z,98190.31
2023-03-04T00:02:59.738Z,98194.56
2023-03-04T00:05:27.314Z,98195.53
2023-03-04T00:07:54.808Z,98192.63
2023-03-04T00:10:22.342Z,98192.47
2023-03-04T00:12:49.770Z,98200.59
2023-03-04T00:15:17.505Z,98196.13
2023-03-04T00:17:46.294Z,98196.34
2023-03-04T00:20:14.280Z,98194.03
2023-03-04T00:22:41.738Z,98187.97
2023-03-04T00:25:09.479Z,98188.78
2023-03-04T00:27:36.908Z,98179.53
2023-03-04T00:30:06.897Z,98174.94
2023-03-04T00:32:34.424Z,98169.28
2023-03-04T00:35:02.022Z,98180.09
2023-03-04T00:37:29.567Z,98171.91
2023-03-04T00:39:57.047Z,98172.13
2023-03-04T00:42:24.658Z,98172.56
2023-03-04T00:44:52.259Z,98170.19
2023-03-04T00:47:19.755Z,98172.94
2023-03-04T00:49:47.250Z,98171.81
2023-03-04T00:52:14.907Z,98164.09
2023-03-04T00:54:42.429Z,98162.97
2023-03-04T00:57:09.935Z,98158.94
2023-03-04T00:59:37.633Z,98161.34
2023-03-04T01:02:05.213Z,98154.19
2023-03-04T01:04:33.043Z,98150.97
2023-03-04T01:07:00.613Z,98145.41
2023-03-04T01:09:29.569Z,98139.03
2023-03-04T01:11:57.517Z,98130.06
2023-03-04T01:14:25.062Z,98137.09
2023-03-04T01:16:52.569Z,98122.97
2023-03-04T01:19:20.095Z,98125.94
2023-03-04T01:21:47.637Z,98125.94
2023-03-04T01:24:16.431Z,98121.25
2023-03-04T01:26:43.901Z,98114.72
2023-03-04T01:29:11.424Z,98110.09
2023-03-04T01:31:39.006Z,98109.63
2023-03-04T01:34:06.565Z,98111.28
2023-03-04T01:36:36.481Z,98103.56
2023-03-04T01:39:04.879Z,98100.31
2023-03-04T01:41:32.871Z,98092.25
2023-03-04T01:44:02.599Z,98090.31
2023-03-04T01:46:31.632Z,98092.78
2023-03-04T01:48:59.522Z,98082.59
2023-03-04T01:51:27.226Z,98083.13
2023-03-04T01:53:55.133Z,98083.13
2023-03-04T01:56:25.490Z,98080.34
2023-03-04T01:59:09.604Z,98078.75
2023-03-04T02:01:38.839Z,98078.84
2023-03-04T02:04:07.835Z,98074.91
2023-03-04T02:06:38.352Z,98077.97
2023-03-04T02:09:07.162Z,98072.13
2023-03-04T02:11:36.059Z,98069.88
2023-03-04T02:14:04.748Z,98072.66
2023-03-04T02:16:32.787Z,98065.75
2023-03-04T02:19:01.318Z,98058.38
2023-03-04T02:21:33.539Z,98065.63
2023-03-04T02:24:20.269Z,98069.88
2023-03-04T02:26:47.880Z,98055.47
2023-03-04T02:29:17.554Z,98055.16
2023-03-04T02:31:51.844Z,98056.66
2023-03-04T02:34:34.248Z,98051.59
2023-03-04T02:37:03.320Z,98045.53
2023-03-04T02:39:39.861Z,98050.31
2023-03-04T02:42:08.225Z,98046.88
2023-03-04T02:44:39.628Z,98037.72
2023-03-04T02:47:09.731Z,98041.13
2023-03-04T02:49:39.363Z,98041.44
2023-03-04T02:52:17.914Z,98035.88
2023-03-04T02:54:45.527Z,98035.56
2023-03-04T02:57:15.011Z,98032.28
2023-03-04T02:59:45.573Z,98030.13
2023-03-04T03:02:18.054Z,98021.97
2023-03-04T03:04:46.275Z,98021.78
2023-03-04T03:07:16.468Z,98018.50
2023-03-04T03:09:44.431Z,98018.34
2023-03-04T03:12:11.961Z,98015.25
2023-03-04T03:14:39.585Z,98014.81
2023-03-04T03:17:09.320Z,98010.38
2023-03-04T03:19:36.859Z,98004.47
2023-03-04T03:22:06.768Z,98008.25
2023-03-04T03:24:34.611Z,98008.06
2023-03-04T03:27:02.099Z,98009.25
2023-03-04T03:29:29.667Z,97997.94
2023-03-04T03:31:57.310Z,98005.94
2023-03-04T03:34:24.934Z,98002.38
2023-03-04T03:36:52.482Z,98002.50
2023-03-04T03:39:20.204Z,98006.78
2023-03-04T03:41:47.790Z,97999.56
2023-03-04T03:44:15.254Z,98001.22
2023-03-04T03:46:42.719Z,97999.56
2023-03-04T03:49:10.225Z,98011.88
2023-03-04T03:51:37.629Z,97992.03
2023-03-04T03:54:05.118Z,98001.53
2023-03-04T03:56:32.589Z,98005.31
2023-03-04T03:59:00.135Z,98000.88
2023-03-04T04:01:27.669Z,97988.78
2023-03-04T04:03:55.196Z,97993.88
2023-03-04T04:06:22.750Z,97988.59
2023-03-04T04:08:50.341Z,97993.66
2023-03-04T04:11:17.997Z,97988.44
2023-03-04T04:13:45.507Z,97996.59
2023-03-04T04:16:13.099Z,97996.09
2023-03-04T04:18:41.111Z,97995.59
2023-03-04T04:21:08.521Z,97997.09
2023-03-04T04:23:36.197Z,98004.31
2023-03-04T04:26:03.927Z,97992.84
2023-03-04T04:28:31.532Z,98000.88
2023-03-04T04:30:59.063Z,98005.44
2023-03-04T04:33:26.988Z,97999.06
2023-03-04T04:35:54.566Z,98003.50
2023-03-04T04:38:22.136Z,98006.25
2023-03-04T04:40:49.578Z,98003.50
2023-03-04T04:43:17.096Z,97996.09
2023-03-04T04:45:44.662Z,97992.50
2023-03-04T04:48:12.286Z,97981.88
2023-03-04T04:50:39.733Z,97982.22
2023-03-04T04:53:07.244Z,97986.47
2023-03-04T04:55:35.104Z,97990.91
2023-03-04T04:58:02.671Z,97986.78
2023-03-04T05:00:30.075Z,97975.00
2023-03-04T05:02:57.680Z,97986.34
2023-03-04T05:05:25.148Z,97993.53
2023-03-04T05:07:52.692Z,97982.88
2023-03-04T05:10:20.457Z,97987.97
2023-03-04T05:12:47.992Z,97981.91
2023-03-04T05:15:15.877Z,97982.88
2023-03-04T05:17:43.522Z,97970.63
2023-03-04T05:20:11.756Z,97972.75
2023-03-04T05:22:39.402Z,97970.13
2023-03-04T05:25:08.000Z,97978.81
2023-03-04T05:27:35.563Z,97987.47
2023-03-04T05:30:03.067Z,97980.97
2023-03-04T05:32:30.698Z,97982.56
2023-03-04T05:39:04.696Z,97976.03
2023-03-04T05:41:32.182Z,97982.09
2023-03-04T05:43:59.716Z,97989.16
2023-03-04T05:46:27.458Z,97985.91
2023-03-04T05:48:55.505Z,97977.03
2023-03-04T05:51:23.646Z,97983.91
2023-03-04T05:53:51.415Z,97978.03
2023-03-04T05:56:20.257Z,97976.41
2023-03-04T05:58:47.775Z,97976.72
2023-03-04T06:01:15.854Z,97974.91
2023-03-04T06:03:48.721Z,97974.97
2023-03-04T06:06:17.277Z,97975.44
2023-03-04T06:08:44.695Z,97972.84
2023-03-04T06:11:12.187Z,97980.06
2023-03-04T06:13:40.367Z,97968.63
2023-03-04T06:16:08.383Z,97972.22
2023-03-04T06:18:35.846Z,97968.44
2023-03-04T06:21:04.035Z,97967.97
2023-03-04T06:23:32.767Z,97966.00
2023-03-04T06:26:01.866Z,97967.13
2023-03-04T06:28:30.566Z,97960.75
2023-03-04T06:30:58.110Z,97972.06
2023-03-04T06:33:26.499Z,97961.25
2023-03-04T06:35:55.860Z,97969.78
2023-03-04T06:38:24.316Z,97968.97
2023-03-04T06:40:52.105Z,97957.47
2023-03-04T06:43:20.187Z,97961.09
2023-03-04T06:45:47.877Z,97966.69
2023-03-04T06:48:15.394Z,97970.94
2023-03-04T06:50:42.963Z,97963.72
2023-03-04T06:53:10.398Z,97966.03
2023-03-04T06:55:37.898Z,97966.03
2023-03-04T06:58:05.594Z,97960.78
2023-03-04T07:00:33.211Z,97957.22
2023-03-04T07:03:02.014Z,97960.78
2023-03-04T07:05:29.577Z,97958.19
2023-03-04T07:07:57.066Z,97967.88
2023-03-04T07:10:24.514Z,97959.69
2023-03-04T07:12:51.992Z,97957.53
2023-03-04T07:15:19.536Z,97960.19
2023-03-04T07:17:47.033Z,97959.00
2023-03-04T07:20:14.645Z,97960.66
2023-03-04T07:22:42.088Z,97948.03
2023-03-04T07:25:09.867Z,97963.44
2023-03-04T07:27:38.809Z,97953.63
2023-03-04T07:30:07.358Z,97959.34
2023-03-04T07:32:35.899Z,97956.72
2023-03-04T07:35:04.586Z,97953.59
2023-03-04T07:37:32.014Z,97957.06
2023-03-04T07:39:59.532Z,97952.63
2023-03-04T07:42:26.999Z,97951.31
2023-03-04T07:45:01.965Z,97953.44
2023-03-04T07:47:29.435Z,97953.94
2023-03-04T07:49:57.114Z,97959.84
2023-03-04T07:52:24.692Z,97955.91
2023-03-04T07:54:52.227Z,97955.06
2023-03-04T07:57:19.820Z,97955.56
2023-03-04T07:59:47.279Z,97956.41
2023-03-04T08:02:15.888Z,97943.44
2023-03-04T08:04:43.405Z,97944.41
2023-03-04T08:07:10.927Z,97945.53
2023-03-04T08:09:38.440Z,97943.25
2023-03-04T08:12:06.612Z,97945.38
2023-03-04T08:14:34.356Z,97941.25
2023-03-04T08:17:01.992Z,97939.56
2023-03-04T08:19:29.702Z,97938.28
2023-03-04T08:21:57.266Z,97938.75
2023-03-04T08:24:24.741Z,97933.63
2023-03-04T08:26:52.224Z,97936.25
2023-03-04T08:29:22.288Z,97936.53
2023-03-04T08:31:51.035Z,97926.19
2023-03-04T08:34:21.340Z,97933.81
2023-03-04T08:36:49.049Z,97925.72
2023-03-04T08:39:17.959Z,97938.41
2023-03-04T08:41:46.713Z,97930.75
2023-03-04T08:44:14.714Z,97925.94
2023-03-04T08:46:43.673Z,97929.72
2023-03-04T08:49:14.787Z,97915.50
2023-03-04T08:51:43.019Z,97921.56
2023-03-04T08:54:10.539Z,97926.28
2023-03-04T08:56:38.237Z,97926.69
2023-03-04T08:59:05.723Z,97920.22
2023-03-04T09:01:36.371Z,97931.09
2023-03-04T09:04:03.965Z,97933.38
2023-03-04T09:06:31.488Z,97929.22
2023-03-04T09:08:58.972Z,97914.47
2023-03-04T09:11:26.476Z,97920.84
2023-03-04T09:13:54.196Z,97920.28
2023-03-04T09:16:22.004Z,97914.28
2023-03-04T09:18:49.677Z,97919.75
2023-03-04T09:21:17.257Z,97919.22
2023-03-04T09:23:44.773Z,97928.78
2023-03-04T09:26:16.938Z,97924.88
2023-03-04T09:28:44.526Z,97926.16
2023-03-04T09:31:14.307Z,97919.38
2023-03-04T09:33:43.283Z,97924.75
2023-03-04T09:36:12.841Z,97919.81
2023-03-04T09:38:41.375Z,97924.53
2023-03-04T09:41:14.089Z,97922.66
2023-03-04T09:43:43.297Z,97918.19
2023-03-04T09:46:16.124Z,97919.81
2023-03-04T09:48:54.846Z,97916.97
2023-03-04T09:51:51.265Z,97897.00
2023-03-04T09:54:41.279Z,97893.72
2023-03-04T09:57:39.237Z,97904.00
2023-03-04T10:00:24.491Z,97893.34
2023-03-04T10:03:10.318Z,97892.47
2023-03-04T10:05:54.692Z,97894.00
2023-03-04T10:08:25.202Z,97889.38
2023-03-04T10:10:56.939Z,97881.00
2023-03-04T10:13:34.193Z,97883.81
2023-03-04T10:16:04.625Z,97882.34
2023-03-04T10:18:44.055Z,97878.28
2023-03-04T10:21:30.853Z,97878.41
2023-03-04T10:24:02.106Z,97880.97
2023-03-04T10:26:33.535Z,97881.53
2023-03-04T10:29:03.294Z,97876.56
2023-03-04T10:31:36.898Z,97884.78
2023-03-04T10:34:05.534Z,97873.63
2023-03-04T10:36:44.348Z,97866.97
2023-03-04T10:39:32.119Z,97862.75
2023-03-04T10:42:25.064Z,97859.47
2023-03-04T10:44:58.417Z,97863.84
2023-03-04T10:47:28.675Z,97864.31
2023-03-04T10:49:58.816Z,97853.81
2023-03-04T10:52:53.342Z,97868.84
2023-03-04T10:55:26.160Z,97861.25
2023-03-04T10:58:05.432Z,97864.88
2023-03-04T11:00:37.855Z,97860.53
2023-03-04T11:03:29.669Z,97866.28
2023-03-04T11:06:20.465Z,97854.13
2023-03-04T11:08:58.839Z,97856.78
2023-03-04T11:11:43.068Z,97863.00
2023-03-04T11:14:26.144Z,97856.91
2023-03-04T11:17:01.610Z,97854.78
2023-03-04T11:19:35.849Z,97856.88
2023-03-04T11:22:04.037Z,97851.19
2023-03-04T11:24:34.969Z,97855.41
2023-03-04T11:27:08.801Z,97860.97
2023-03-04T11:29:36.130Z,97854.25
2023-03-04T11:32:35.537Z,97859.72
2023-03-04T11:35:33.342Z,97853.94
2023-03-04T11:38:18.727Z,97853.88
2023-03-04T11:41:11.513Z,97854.81
2023-03-04T11:43:43.089Z,97844.81
2023-03-04T11:46:48.257Z,97856.91
2023-03-04T11:49:46.423Z,97846.19
2023-03-04T11:52:36.608Z,97843.09
2023-03-04T11:55:19.057Z,97840.00
2023-03-04T11:57:55.582Z,97837.09
2023-03-04T12:00:39.782Z,97834.19
2023-03-04T12:03:19.576Z,97839.81
2023-03-04T12:06:08.434Z,97820.47
2023-03-04T12:08:53.683Z,97824.28
2023-03-04T12:11:39.644Z,97829.47
2023-03-04T12:14:36.304Z,97818.00
2023-03-04T12:17:14.003Z,97820.91
2023-03-04T12:19:50.559Z,97822.22
2023-03-04T12:22:33.812Z,97816.59
2023-03-04T12:25:35.330Z,97816.25
2023-03-04T12:28:17.004Z,97812.06
2023-03-04T12:31:02.803Z,97810.97
2023-03-04T12:33:39.633Z,97806.16
2023-03-04T12:36:25.896Z,97798.84
2023-03-04T12:39:02.445Z,97799.41
2023-03-04T12:41:47.907Z,97800.88
2023-03-04T12:44:18.275Z,97807.28
2023-03-04T12:47:26.405Z,97792.81
2023-03-04T12:50:30.214Z,97787.97
2023-03-04T12:53:11.844Z,97787.94
2023-03-04T12:55:45.554Z,97786.88
2023-03-04T12:58:18.460Z,97777.22
2023-03-04T13:00:56.571Z,97780.69
2023-03-04T13:03:45.693Z,97784.25
2023-03-04T13:06:15.872Z,97774.72
2023-03-04T13:08:57.050Z,97778.28
2023-03-04T13:11:27.662Z,97770.88
2023-03-04T13:14:23.781Z,97769.38
2023-03-04T13:17:01.980Z,97767.38
2023-03-04T13:19:49.422Z,97769.91
2023-03-04T13:22:38.200Z,97769.91
2023-03-04T13:25:33.495Z,97768.28
2023-03-04T13:28:02.893Z,97764.78
2023-03-04T13:30:33.584Z,97766.44
2023-03-04T13:33:13.754Z,97766.72
2023-03-04T13:35:47.511Z,97763.69
2023-03-04T13:38:25.304Z,97755.59
2023-03-04T13:41:21.750Z,97756.13
2023-03-04T13:44:00.153Z,97759.75
2023-03-04T13:46:27.761Z,97761.47
2023-03-04T13:49:00.741Z,97749.13
2023-03-04T13:51:41.667Z,97752.72
2023-03-04T13:54:22.064Z,97742.69
2023-03-04T13:57:01.532Z,97743.81
2023-03-04T13:59:34.764Z,97737.03
2023-03-04T14:02:04.110Z,97727.66
2023-03-04T14:04:37.583Z,97739.59
2023-03-04T14:07:29.418Z,97737.22
2023-03-04T14:10:01.364Z,97728.09
2023-03-04T14:12:32.081Z,97734.75
2023-03-04T14:15:14.690Z,97725.63
2023-03-04T14:17:49.635Z,97718.88
2023-03-04T14:20:34.189Z,97724.91
2023-03-04T14:23:04.279Z,97726.22
2023-03-04T14:25:36.561Z,97734.88
2023-03-04T14:28:16.827Z,97718.94
2023-03-04T14:30:52.652Z,97728.84
2023-03-04T14:33:24.450Z,97730.19
2023-03-04T14:35:55.424Z,97724.19
2023-03-04T14:38:32.292Z,97723.03
2023-03-04T14:41:08.919Z,97709.00
2023-03-04T14:43:59.003Z,97712.25
2023-03-04T14:46:34.315Z,97713.06
2023-03-04T14:49:02.739Z,97710.06
2023-03-04T14:51:43.027Z,97706.09
2023-03-04T14:54:28.817Z,97711.13
2023-03-04T14:56:57.418Z,97702.84
2023-03-04T14:59:33.227Z,97707.00
2023-03-04T15:02:19.555Z,97715.41
2023-03-04T15:04:48.376Z,97719.00
2023-03-04T15:07:20.164Z,97712.34
2023-03-04T15:09:54.144Z,97716.78
2023-03-04T15:12:30.758Z,97713.41
2023-03-04T15:15:00.868Z,97718.09
2023-03-04T15:17:42.765Z,97713.09
2023-03-04T15:20:10.194Z,97708.59
2023-03-04T15:22:56.901Z,97717.69
2023-03-04T15:25:24.527Z,97705.69
2023-03-04T15:27:54.063Z,97709.91
2023-03-04T15:30:24.953Z,97704.06
2023-03-04T15:32:52.475Z,97714.63
2023-03-04T15:35:20.885Z,97712.25
2023-03-04T15:37:52.419Z,97706.56
2023-03-04T15:40:35.721Z,97708.81
2023-03-04T15:43:05.881Z,97717.47
2023-03-04T15:45:37.037Z,97712.03
2023-03-04T15:48:09.800Z,97719.38
2023-03-04T15:50:41.617Z,97712.19
2023-03-04T15:53:27.361Z,97717.91
2023-03-04T15:55:54.954Z,97720.09
2023-03-04T15:58:22.580Z,97719.38
2023-03-04T16:00:51.903Z,97721.56
2023-03-04T16:03:21.486Z,97721.66
2023-03-04T16:05:51.129Z,97729.78
2023-03-04T16:08:25.189Z,97726.13
2023-03-04T16:10:54.308Z,97722.31
2023-03-04T16:13:23.971Z,97727.75
2023-03-04T16:15:51.874Z,97738.56
2023-03-04T16:18:19.754Z,97726.75
2023-03-04T16:20:49.600Z,97734.47
2023-03-04T16:23:20.854Z,97731.59
2023-03-04T16:25:50.833Z,97725.09
2023-03-04T16:28:18.665Z,97731.41
2023-03-04T16:30:47.401Z,97726.50
2023-03-04T16:33:16.381Z,97728.69
2023-03-04T16:35:45.257Z,97720.50
2023-03-04T16:38:21.415Z,97725.19
2023-03-04T16:40:49.771Z,97719.25
2023-03-04T16:43:17.417Z,97728.06
2023-03-04T16:45:45.160Z,97726.97
2023-03-04T16:48:12.593Z,97732.53
2023-03-04T16:50:41.066Z,97737.88
2023-03-04T16:53:29.230Z,97726.44
2023-03-04T16:55:58.831Z,97716.47
2023-03-04T16:58:26.379Z,97719.84
2023-03-04T17:00:55.213Z,97718.84
2023-03-04T17:03:22.645Z,97724.09
2023-03-04T17:05:50.139Z,97734.81
2023-03-04T17:08:17.721Z,97734.38
2023-03-04T17:10:45.226Z,97733.38
2023-03-04T17:13:12.922Z,97734.94
2023-03-04T17:15:42.993Z,97736.91
2023-03-04T17:18:10.483Z,97732.94
2023-03-04T17:20:37.950Z,97717.41
2023-03-04T17:23:05.745Z,97722.78
2023-03-04T17:25:33.456Z,97736.47
2023-03-04T17:28:01.098Z,97736.81
2023-03-04T17:30:28.829Z,97737.53
2023-03-04T17:32:56.316Z,97752.88
2023-03-04T17:35:25.761Z,97748.78
2023-03-04T17:37:53.413Z,97749.97
2023-03-04T17:40:21.060Z,97761.03
2023-03-04T17:42:48.529Z,97752.44
2023-03-04T17:45:16.010Z,97762.31
2023-03-04T17:47:43.611Z,97759.16
2023-03-04T17:50:11.686Z,97758.88
2023-03-04T17:52:39.289Z,97764.03
2023-03-04T17:55:07.207Z,97763.84
2023-03-04T17:57:38.480Z,97759.03
2023-03-04T18:00:06.972Z,97770.41
2023-03-04T18:02:34.435Z,97770.28
2023-03-04T18:05:07.163Z,97765.75
2023-03-04T18:07:34.682Z,97762.31
2023-03-04T18:10:02.303Z,97758.06
2023-03-04T18:12:30.081Z,97759.59
2023-03-04T18:14:57.485Z,97767.38
2023-03-04T18:17:25.130Z,97750.53
2023-03-04T18:19:52.663Z,97752.22
2023-03-04T18:22:20.162Z,97760.09
2023-03-04T18:24:47.675Z,97754.84
2023-03-04T18:27:15.282Z,97763.75
2023-03-04T18:29:42.757Z,97753.22
2023-03-04T18:32:10.340Z,97754.22
2023-03-04T18:34:37.880Z,97762.38
2023-03-04T18:37:05.393Z,97761.41
2023-03-04T18:39:32.857Z,97759.94
2023-03-04T18:42:01.000Z,97766.38
2023-03-04T18:44:28.438Z,97755.31
2023-03-04T18:46:57.864Z,97752.84
2023-03-04T18:49:25.646Z,97759.47
2023-03-04T18:51:53.673Z,97754.03
2023-03-04T18:54:21.183Z,97764.44
2023-03-04T18:56:55.763Z,97761.66
2023-03-04T18:59:31.449Z,97767.63
2023-03-04T19:02:02.584Z,97770.41
2023-03-04T19:04:30.564Z,97768.16
2023-03-04T19:06:59.155Z,97765.97
2023-03-04T19:09:27.426Z,97761.72
2023-03-04T19:11:54.857Z,97765.16
2023-03-04T19:14:22.386Z,97766.78
2023-03-04T19:16:49.902Z,97777.03
2023-03-04T19:19:17.776Z,97769.50
2023-03-04T19:21:45.276Z,97766.53
2023-03-04T19:24:12.876Z,97773.69
2023-03-04T19:26:40.400Z,97771.47
2023-03-04T19:29:08.037Z,97769.00
2023-03-04T19:31:41.021Z,97765.94
2023-03-04T19:34:09.520Z,97763.59
2023-03-04T19:36:37.245Z,97767.38
2023-03-04T19:39:05.726Z,97762.59
2023-03-04T19:41:33.133Z,97770.84
2023-03-04T19:44:00.845Z,97770.56
2023-03-04T19:46:28.554Z,97767.28
2023-03-04T19:48:56.013Z,97771.72
2023-03-04T19:51:26.328Z,97769.91
2023-03-04T19:53:54.744Z,97768.41
2023-03-04T19:56:22.868Z,97774.00
2023-03-04T19:58:53.837Z,97763.66
2023-03-04T20:01:41.750Z,97780.88
2023-03-04T20:04:12.007Z,97774.81
2023-03-04T20:06:42.324Z,97779.63
2023-03-04T20:09:10.697Z,97776.44
2023-03-04T20:11:47.398Z,97784.88
2023-03-04T20:14:22.424Z,97779.66
2023-03-04T20:16:49.883Z,97781.28
2023-03-04T20:19:17.418Z,97782.84
2023-03-04T20:21:44.876Z,97781.25
2023-03-04T20:24:13.172Z,97787.94
2023-03-04T20:26:40.776Z,97786.16
2023-03-04T20:29:08.331Z,97790.94
2023-03-04T20:31:39.387Z,97785.84
2023-03-04T20:34:08.032Z,97785.41
2023-03-04T20:36:36.110Z,97786.72
2023-03-04T20:39:10.270Z,97790.03
2023-03-04T20:41:45.810Z,97789.88
2023-03-04T20:44:13.334Z,97787.94
2023-03-04T20:46:45.174Z,97784.31
2023-03-04T20:49:16.299Z,97785.66
2023-03-04T20:51:43.841Z,97789.44
2023-03-04T20:54:11.760Z,97787.59
2023-03-04T20:56:39.782Z,97781.06
2023-03-04T20:59:08.925Z,97780.75
2023-03-04T21:01:39.112Z,97776.97
2023-03-04T21:04:07.168Z,97779.13
2023-03-04T21:06:34.686Z,97775.81
2023-03-04T21:09:08.282Z,97777.78
2023-03-04T21:11:40.536Z,97774.03
2023-03-04T21:14:14.624Z,97766.31
2023-03-04T21:16:43.094Z,97769.94
2023-03-04T21:19:17.028Z,97766.78
2023-03-04T21:21:45.722Z,97773.69
2023-03-04T21:24:20.032Z,97775.84
2023-03-04T21:26:48.153Z,97772.75
2023-03-04T21:29:18.030Z,97770.75
2023-03-04T21:31:50.645Z,97768.13
2023-03-04T21:34:24.833Z,97768.31
2023-03-04T21:36:52.577Z,97773.03
2023-03-04T21:39:22.978Z,97761.72
2023-03-04T21:41:51.146Z,97760.75
2023-03-04T21:44:28.122Z,97752.06
2023-03-04T21:46:58.018Z,97766.78
2023-03-04T21:49:26.573Z,97763.34
2023-03-04T21:51:54.027Z,97757.94
2023-03-04T21:54:21.772Z,97757.78
2023-03-04T21:56:50.465Z,97748.91
2023-03-04T21:59:18.062Z,97750.06
2023-03-04T22:01:46.077Z,97752.06
2023-03-04T22:04:13.690Z,97741.78
2023-03-04T22:06:41.547Z,97736.72
2023-03-04T22:09:09.763Z,97740.16
2023-03-04T22:11:37.326Z,97739.88
2023-03-04T22:14:05.632Z,97742.34
2023-03-04T22:16:37.544Z,97740.53
2023-03-04T22:19:07.810Z,97735.53
2023-03-04T22:21:35.226Z,97737.69
2023-03-04T22:24:02.668Z,97731.81
2023-03-04T22:26:31.985Z,97731.28
2023-03-04T22:29:01.372Z,97733.44
2023-03-04T22:31:34.262Z,97731.81
2023-03-04T22:34:10.505Z,97725.72
2023-03-04T22:36:40.284Z,97725.72
2023-03-04T22:39:10.501Z,97726.25
2023-03-04T22:41:38.372Z,97724.44
2023-03-04T22:44:07.233Z,97729.06
2023-03-04T22:46:36.671Z,97724.28
2023-03-04T22:49:06.937Z,97717.91
2023-03-04T22:51:34.437Z,97716.25
2023-03-04T22:54:01.870Z,97724.59
2023-03-04T22:56:29.421Z,97720.53
2023-03-04T22:58:56.908Z,97714.97
2023-03-04T23:01:24.806Z,97713.81
2023-03-04T23:03:53.150Z,97704.47
2023-03-04T23:06:30.365Z,97708.91
2023-03-04T23:08:59.004Z,97712.50
2023-03-04T23:11:30.415Z,97712.69
2023-03-04T23:13:58.090Z,97717.94
2023-03-04T23:16:27.946Z,97704.16
2023-03-04T23:18:57.118Z,97713.03
2023-03-04T23:21:28.252Z,97713.84
2023-03-04T23:23:56.719Z,97711.56
2023-03-04T23:26:27.660Z,97702.09
2023-03-04T23:28:57.261Z,97706.19
2023-03-04T23:31:25.904Z,97706.56
2023-03-04T23:33:57.555Z,97707.81
2023-03-04T23:36:28.311Z,97705.19
2023-03-04T23:38:56.606Z,97700.13
2023-03-04T23:41:27.885Z,97692.28
2023-03-04T23:43:57.021Z,97697.53
2023-03-04T23:46:25.672Z,97694.44
2023-03-04T23:48:53.979Z,97699.81
2023-03-04T23:51:25.383Z,97694.44
2023-03-04T23:53:52.918Z,97688.84
2023-03-04T23:56:23.406Z,97700.53
2023-03-04T23:58:51.493Z,97696.94
